sensor_id;sensor_type;location;lat;lon;timestamp;P1;durP1;ratioP1;P2;durP2;ratioP2
25868;SDS011;13688;53.154;18.136;2023-05-29T00:02:02;8.38;;;3.75;;
25868;SDS011;13688;53.154;18.136;2023-05-29T00:07:25;7.75;;;3.65;;
25868;SDS011;13688;53.154;18.136;2023-05-29T00:12:48;7.47;;;3.20;;
25868;SDS011;13688;53.154;18.136;2023-05-29T00:18:11;6.85;;;3.35;;
25868;SDS011;13688;53.154;18.136;2023-05-29T00:23:33;8.40;;;3.65;;
25868;SDS011;13688;53.154;18.136;2023-05-29T00:28:57;7.20;;;3.02;;
25868;SDS011;13688;53.154;18.136;2023-05-29T00:34:21;12.35;;;3.02;;
25868;SDS011;13688;53.154;18.136;2023-05-29T00:39:44;6.80;;;3.15;;
25868;SDS011;13688;53.154;18.136;2023-05-29T00:45:07;5.87;;;3.15;;
25868;SDS011;13688;53.154;18.136;2023-05-29T00:50:30;7.58;;;3.05;;
25868;SDS011;13688;53.154;18.136;2023-05-29T00:55:53;9.13;;;3.65;;
25868;SDS011;13688;53.154;18.136;2023-05-29T01:01:17;7.58;;;3.12;;
25868;SDS011;13688;53.154;18.136;2023-05-29T01:06:40;8.73;;;3.58;;
25868;SDS011;13688;53.154;18.136;2023-05-29T01:12:06;10.70;;;3.52;;
25868;SDS011;13688;53.154;18.136;2023-05-29T01:17:32;7.12;;;3.42;;
25868;SDS011;13688;53.154;18.136;2023-05-29T01:23:23;10.58;;;2.90;;
25868;SDS011;13688;53.154;18.136;2023-05-29T01:29:06;7.47;;;3.40;;
25868;SDS011;13688;53.154;18.136;2023-05-29T01:34:32;6.40;;;3.20;;
25868;SDS011;13688;53.154;18.136;2023-05-29T01:39:55;6.25;;;2.92;;
25868;SDS011;13688;53.154;18.136;2023-05-29T01:45:18;8.80;;;3.35;;
25868;SDS011;13688;53.154;18.136;2023-05-29T01:50:41;6.50;;;3.00;;
25868;SDS011;13688;53.154;18.136;2023-05-29T01:56:05;6.12;;;3.10;;
25868;SDS011;13688;53.154;18.136;2023-05-29T02:01:30;6.90;;;3.08;;
25868;SDS011;13688;53.154;18.136;2023-05-29T02:06:55;6.47;;;3.33;;
25868;SDS011;13688;53.154;18.136;2023-05-29T02:12:19;8.23;;;3.65;;
25868;SDS011;13688;53.154;18.136;2023-05-29T02:17:41;8.75;;;3.25;;
25868;SDS011;13688;53.154;18.136;2023-05-29T02:23:21;9.10;;;3.50;;
25868;SDS011;13688;53.154;18.136;2023-05-29T02:28:43;5.70;;;3.50;;
25868;SDS011;13688;53.154;18.136;2023-05-29T02:34:06;6.83;;;3.27;;
25868;SDS011;13688;53.154;18.136;2023-05-29T02:39:28;5.77;;;3.60;;
25868;SDS011;13688;53.154;18.136;2023-05-29T02:44:52;12.10;;;3.57;;
25868;SDS011;13688;53.154;18.136;2023-05-29T02:50:15;7.50;;;3.63;;
25868;SDS011;13688;53.154;18.136;2023-05-29T02:55:37;8.87;;;3.40;;
25868;SDS011;13688;53.154;18.136;2023-05-29T03:01:00;9.03;;;3.60;;
25868;SDS011;13688;53.154;18.136;2023-05-29T03:06:22;13.03;;;4.10;;
25868;SDS011;13688;53.154;18.136;2023-05-29T03:11:45;5.50;;;3.52;;
25868;SDS011;13688;53.154;18.136;2023-05-29T03:17:10;6.00;;;3.30;;
25868;SDS011;13688;53.154;18.136;2023-05-29T03:22:34;9.83;;;3.37;;
25868;SDS011;13688;53.154;18.136;2023-05-29T03:27:57;7.57;;;3.70;;
25868;SDS011;13688;53.154;18.136;2023-05-29T03:33:21;10.53;;;4.03;;
25868;SDS011;13688;53.154;18.136;2023-05-29T03:38:45;12.20;;;4.07;;
25868;SDS011;13688;53.154;18.136;2023-05-29T03:44:07;10.63;;;4.67;;
25868;SDS011;13688;53.154;18.136;2023-05-29T03:49:29;8.85;;;4.50;;
25868;SDS011;13688;53.154;18.136;2023-05-29T03:54:52;10.03;;;4.75;;
25868;SDS011;13688;53.154;18.136;2023-05-29T04:00:18;9.05;;;4.78;;
25868;SDS011;13688;53.154;18.136;2023-05-29T04:05:42;9.77;;;4.43;;
25868;SDS011;13688;53.154;18.136;2023-05-29T04:11:06;10.68;;;4.35;;
25868;SDS011;13688;53.154;18.136;2023-05-29T04:16:31;8.43;;;4.10;;
25868;SDS011;13688;53.154;18.136;2023-05-29T04:21:54;13.13;;;4.72;;
25868;SDS011;13688;53.154;18.136;2023-05-29T04:27:18;9.37;;;3.83;;
25868;SDS011;13688;53.154;18.136;2023-05-29T04:32:41;14.90;;;4.27;;
25868;SDS011;13688;53.154;18.136;2023-05-29T04:38:03;9.07;;;4.17;;
25868;SDS011;13688;53.154;18.136;2023-05-29T04:43:27;9.77;;;3.63;;
25868;SDS011;13688;53.154;18.136;2023-05-29T04:48:52;14.28;;;4.03;;
25868;SDS011;13688;53.154;18.136;2023-05-29T04:54:16;8.28;;;4.05;;
25868;SDS011;13688;53.154;18.136;2023-05-29T04:59:41;10.58;;;4.28;;
25868;SDS011;13688;53.154;18.136;2023-05-29T05:05:04;9.27;;;4.20;;
25868;SDS011;13688;53.154;18.136;2023-05-29T05:10:27;11.80;;;4.65;;
25868;SDS011;13688;53.154;18.136;2023-05-29T05:15:49;13.70;;;4.17;;
25868;SDS011;13688;53.154;18.136;2023-05-29T05:21:12;6.30;;;3.80;;
25868;SDS011;13688;53.154;18.136;2023-05-29T05:26:36;10.35;;;4.12;;
25868;SDS011;13688;53.154;18.136;2023-05-29T05:31:59;9.33;;;4.20;;
25868;SDS011;13688;53.154;18.136;2023-05-29T05:37:22;11.37;;;4.20;;
25868;SDS011;13688;53.154;18.136;2023-05-29T05:42:44;10.45;;;4.33;;
25868;SDS011;13688;53.154;18.136;2023-05-29T05:48:07;11.60;;;4.37;;
25868;SDS011;13688;53.154;18.136;2023-05-29T05:53:30;11.43;;;3.75;;
25868;SDS011;13688;53.154;18.136;2023-05-29T05:58:53;11.73;;;4.00;;
25868;SDS011;13688;53.154;18.136;2023-05-29T06:04:16;12.60;;;3.53;;
25868;SDS011;13688;53.154;18.136;2023-05-29T06:09:39;8.63;;;3.85;;
25868;SDS011;13688;53.154;18.136;2023-05-29T06:15:03;11.40;;;4.20;;
25868;SDS011;13688;53.154;18.136;2023-05-29T06:20:25;11.30;;;4.03;;
25868;SDS011;13688;53.154;18.136;2023-05-29T06:25:48;9.27;;;3.83;;
25868;SDS011;13688;53.154;18.136;2023-05-29T06:31:11;12.03;;;4.05;;
25868;SDS011;13688;53.154;18.136;2023-05-29T06:36:34;8.13;;;3.87;;
25868;SDS011;13688;53.154;18.136;2023-05-29T06:41:56;7.42;;;3.95;;
25868;SDS011;13688;53.154;18.136;2023-05-29T06:47:19;9.48;;;3.98;;
25868;SDS011;13688;53.154;18.136;2023-05-29T06:52:41;8.50;;;3.53;;
25868;SDS011;13688;53.154;18.136;2023-05-29T06:58:04;8.38;;;3.80;;
25868;SDS011;13688;53.154;18.136;2023-05-29T07:03:27;6.92;;;3.42;;
25868;SDS011;13688;53.154;18.136;2023-05-29T07:08:51;10.80;;;3.95;;
25868;SDS011;13688;53.154;18.136;2023-05-29T07:14:15;8.88;;;3.60;;
25868;SDS011;13688;53.154;18.136;2023-05-29T07:19:39;8.85;;;3.45;;
25868;SDS011;13688;53.154;18.136;2023-05-29T07:25:04;9.68;;;3.77;;
25868;SDS011;13688;53.154;18.136;2023-05-29T07:30:29;13.77;;;4.07;;
25868;SDS011;13688;53.154;18.136;2023-05-29T07:35:53;15.10;;;4.53;;
25868;SDS011;13688;53.154;18.136;2023-05-29T07:41:18;7.33;;;3.27;;
25868;SDS011;13688;53.154;18.136;2023-05-29T07:46:42;6.27;;;3.50;;
25868;SDS011;13688;53.154;18.136;2023-05-29T07:52:07;8.38;;;3.27;;
25868;SDS011;13688;53.154;18.136;2023-05-29T07:57:30;8.55;;;3.55;;
25868;SDS011;13688;53.154;18.136;2023-05-29T08:02:53;9.30;;;3.70;;
25868;SDS011;13688;53.154;18.136;2023-05-29T08:08:16;16.43;;;4.53;;
25868;SDS011;13688;53.154;18.136;2023-05-29T08:13:39;7.60;;;3.60;;
25868;SDS011;13688;53.154;18.136;2023-05-29T08:19:01;7.45;;;3.35;;
25868;SDS011;13688;53.154;18.136;2023-05-29T08:24:24;7.93;;;3.53;;
25868;SDS011;13688;53.154;18.136;2023-05-29T08:29:46;10.33;;;3.40;;
25868;SDS011;13688;53.154;18.136;2023-05-29T08:35:08;9.90;;;3.55;;
25868;SDS011;13688;53.154;18.136;2023-05-29T08:40:31;9.97;;;3.23;;
25868;SDS011;13688;53.154;18.136;2023-05-29T08:45:54;8.33;;;3.05;;
25868;SDS011;13688;53.154;18.136;2023-05-29T08:51:21;5.85;;;2.83;;
25868;SDS011;13688;53.154;18.136;2023-05-29T08:56:54;5.87;;;2.90;;
25868;SDS011;13688;53.154;18.136;2023-05-29T09:02:19;5.15;;;2.90;;
25868;SDS011;13688;53.154;18.136;2023-05-29T09:07:42;7.70;;;3.00;;
25868;SDS011;13688;53.154;18.136;2023-05-29T09:13:08;9.78;;;3.08;;
25868;SDS011;13688;53.154;18.136;2023-05-29T09:18:32;4.60;;;2.67;;
25868;SDS011;13688;53.154;18.136;2023-05-29T09:24:01;8.88;;;3.20;;
25868;SDS011;13688;53.154;18.136;2023-05-29T09:29:24;9.00;;;3.23;;
25868;SDS011;13688;53.154;18.136;2023-05-29T09:34:49;8.78;;;2.80;;
25868;SDS011;13688;53.154;18.136;2023-05-29T09:40:15;6.30;;;2.70;;
25868;SDS011;13688;53.154;18.136;2023-05-29T09:45:45;6.07;;;3.17;;
25868;SDS011;13688;53.154;18.136;2023-05-29T09:51:19;7.60;;;3.30;;
25868;SDS011;13688;53.154;18.136;2023-05-29T09:56:43;7.78;;;3.33;;
25868;SDS011;13688;53.154;18.136;2023-05-29T10:02:08;6.00;;;2.60;;
25868;SDS011;13688;53.154;18.136;2023-05-29T10:07:32;7.08;;;3.05;;
25868;SDS011;13688;53.154;18.136;2023-05-29T10:12:59;8.10;;;3.00;;
25868;SDS011;13688;53.154;18.136;2023-05-29T10:18:26;7.17;;;2.75;;
25868;SDS011;13688;53.154;18.136;2023-05-29T10:23:54;9.07;;;3.50;;
25868;SDS011;13688;53.154;18.136;2023-05-29T10:29:24;9.85;;;3.05;;
25868;SDS011;13688;53.154;18.136;2023-05-29T10:34:58;8.57;;;3.13;;
25868;SDS011;13688;53.154;18.136;2023-05-29T10:40:32;7.23;;;3.20;;
25868;SDS011;13688;53.154;18.136;2023-05-29T10:45:55;5.92;;;2.45;;
25868;SDS011;13688;53.154;18.136;2023-05-29T10:51:26;5.70;;;2.40;;
25868;SDS011;13688;53.154;18.136;2023-05-29T10:56:52;7.75;;;2.40;;
25868;SDS011;13688;53.154;18.136;2023-05-29T11:02:21;6.73;;;2.63;;
25868;SDS011;13688;53.154;18.136;2023-05-29T11:07:56;8.20;;;2.37;;
25868;SDS011;13688;53.154;18.136;2023-05-29T11:13:25;4.50;;;2.40;;
25868;SDS011;13688;53.154;18.136;2023-05-29T11:18:49;8.43;;;4.42;;
25868;SDS011;13688;53.154;18.136;2023-05-29T11:24:25;7.50;;;2.25;;
25868;SDS011;13688;53.154;18.136;2023-05-29T11:29:48;5.53;;;2.70;;
25868;SDS011;13688;53.154;18.136;2023-05-29T11:35:14;6.47;;;2.60;;
25868;SDS011;13688;53.154;18.136;2023-05-29T11:40:37;7.85;;;2.40;;
25868;SDS011;13688;53.154;18.136;2023-05-29T11:46:02;5.22;;;2.20;;
25868;SDS011;13688;53.154;18.136;2023-05-29T11:51:33;7.03;;;2.30;;
25868;SDS011;13688;53.154;18.136;2023-05-29T11:56:59;4.83;;;2.58;;
25868;SDS011;13688;53.154;18.136;2023-05-29T12:02:24;7.15;;;2.45;;
25868;SDS011;13688;53.154;18.136;2023-05-29T12:07:53;4.75;;;2.33;;
25868;SDS011;13688;53.154;18.136;2023-05-29T12:13:18;3.62;;;2.27;;
25868;SDS011;13688;53.154;18.136;2023-05-29T12:18:40;5.70;;;2.55;;
25868;SDS011;13688;53.154;18.136;2023-05-29T12:24:04;5.97;;;2.20;;
25868;SDS011;13688;53.154;18.136;2023-05-29T12:29:35;7.10;;;2.45;;
25868;SDS011;13688;53.154;18.136;2023-05-29T12:34:58;6.53;;;2.27;;
25868;SDS011;13688;53.154;18.136;2023-05-29T12:40:33;5.12;;;2.55;;
25868;SDS011;13688;53.154;18.136;2023-05-29T12:45:58;5.97;;;2.30;;
25868;SDS011;13688;53.154;18.136;2023-05-29T12:51:25;4.00;;;2.10;;
25868;SDS011;13688;53.154;18.136;2023-05-29T12:56:50;5.10;;;2.05;;
25868;SDS011;13688;53.154;18.136;2023-05-29T13:02:12;4.97;;;2.20;;
25868;SDS011;13688;53.154;18.136;2023-05-29T13:07:35;13.43;;;6.00;;
25868;SDS011;13688;53.154;18.136;2023-05-29T13:12:59;4.87;;;2.40;;
25868;SDS011;13688;53.154;18.136;2023-05-29T13:18:22;4.37;;;2.25;;
25868;SDS011;13688;53.154;18.136;2023-05-29T13:23:46;4.85;;;1.80;;
25868;SDS011;13688;53.154;18.136;2023-05-29T13:29:10;5.43;;;2.23;;
25868;SDS011;13688;53.154;18.136;2023-05-29T13:34:33;6.37;;;2.00;;
25868;SDS011;13688;53.154;18.136;2023-05-29T13:39:56;7.05;;;2.42;;
25868;SDS011;13688;53.154;18.136;2023-05-29T13:45:18;6.95;;;2.10;;
25868;SDS011;13688;53.154;18.136;2023-05-29T13:50:41;7.17;;;2.17;;
25868;SDS011;13688;53.154;18.136;2023-05-29T13:56:04;5.40;;;2.12;;
25868;SDS011;13688;53.154;18.136;2023-05-29T14:01:29;6.65;;;2.30;;
25868;SDS011;13688;53.154;18.136;2023-05-29T14:06:52;7.62;;;2.67;;
25868;SDS011;13688;53.154;18.136;2023-05-29T14:12:16;5.92;;;2.12;;
25868;SDS011;13688;53.154;18.136;2023-05-29T14:17:40;5.78;;;2.12;;
25868;SDS011;13688;53.154;18.136;2023-05-29T14:23:20;8.40;;;2.53;;
25868;SDS011;13688;53.154;18.136;2023-05-29T14:28:45;5.87;;;2.27;;
25868;SDS011;13688;53.154;18.136;2023-05-29T14:34:11;4.42;;;1.87;;
25868;SDS011;13688;53.154;18.136;2023-05-29T14:39:33;4.83;;;1.90;;
25868;SDS011;13688;53.154;18.136;2023-05-29T14:44:58;5.13;;;2.33;;
25868;SDS011;13688;53.154;18.136;2023-05-29T14:50:23;6.23;;;2.53;;
25868;SDS011;13688;53.154;18.136;2023-05-29T14:55:46;5.17;;;2.20;;
25868;SDS011;13688;53.154;18.136;2023-05-29T15:01:10;9.80;;;2.30;;
25868;SDS011;13688;53.154;18.136;2023-05-29T15:06:33;5.40;;;1.87;;
25868;SDS011;13688;53.154;18.136;2023-05-29T15:12:00;3.72;;;2.00;;
25868;SDS011;13688;53.154;18.136;2023-05-29T15:17:23;7.50;;;1.87;;
25868;SDS011;13688;53.154;18.136;2023-05-29T15:22:48;4.97;;;1.90;;
25868;SDS011;13688;53.154;18.136;2023-05-29T15:28:11;4.55;;;2.10;;
25868;SDS011;13688;53.154;18.136;2023-05-29T15:33:33;5.12;;;1.87;;
25868;SDS011;13688;53.154;18.136;2023-05-29T15:38:56;6.85;;;2.27;;
25868;SDS011;13688;53.154;18.136;2023-05-29T15:44:20;4.58;;;2.22;;
25868;SDS011;13688;53.154;18.136;2023-05-29T15:49:42;6.30;;;2.02;;
25868;SDS011;13688;53.154;18.136;2023-05-29T15:55:06;4.42;;;2.12;;
25868;SDS011;13688;53.154;18.136;2023-05-29T16:00:29;5.20;;;2.08;;
25868;SDS011;13688;53.154;18.136;2023-05-29T16:05:53;5.65;;;2.20;;
25868;SDS011;13688;53.154;18.136;2023-05-29T16:11:16;5.58;;;2.25;;
25868;SDS011;13688;53.154;18.136;2023-05-29T16:16:39;5.60;;;2.10;;
25868;SDS011;13688;53.154;18.136;2023-05-29T16:22:01;8.50;;;2.67;;
25868;SDS011;13688;53.154;18.136;2023-05-29T16:27:25;5.55;;;2.40;;
25868;SDS011;13688;53.154;18.136;2023-05-29T16:32:49;5.40;;;2.05;;
25868;SDS011;13688;53.154;18.136;2023-05-29T16:38:11;5.20;;;2.00;;
25868;SDS011;13688;53.154;18.136;2023-05-29T16:43:34;7.27;;;2.30;;
25868;SDS011;13688;53.154;18.136;2023-05-29T16:48:56;5.35;;;2.00;;
25868;SDS011;13688;53.154;18.136;2023-05-29T16:54:19;5.57;;;2.33;;
25868;SDS011;13688;53.154;18.136;2023-05-29T16:59:45;4.97;;;2.03;;
25868;SDS011;13688;53.154;18.136;2023-05-29T17:05:08;8.38;;;2.40;;
25868;SDS011;13688;53.154;18.136;2023-05-29T17:10:31;4.20;;;1.77;;
25868;SDS011;13688;53.154;18.136;2023-05-29T17:15:54;8.50;;;2.17;;
25868;SDS011;13688;53.154;18.136;2023-05-29T17:21:17;10.48;;;2.27;;
25868;SDS011;13688;53.154;18.136;2023-05-29T17:26:40;7.47;;;2.20;;
25868;SDS011;13688;53.154;18.136;2023-05-29T17:32:04;9.35;;;2.25;;
25868;SDS011;13688;53.154;18.136;2023-05-29T17:37:27;5.65;;;2.30;;
25868;SDS011;13688;53.154;18.136;2023-05-29T17:42:50;6.25;;;2.05;;
25868;SDS011;13688;53.154;18.136;2023-05-29T17:48:13;8.28;;;2.10;;
25868;SDS011;13688;53.154;18.136;2023-05-29T17:53:36;6.63;;;2.03;;
25868;SDS011;13688;53.154;18.136;2023-05-29T17:58:59;7.15;;;2.42;;
25868;SDS011;13688;53.154;18.136;2023-05-29T18:04:22;9.87;;;2.33;;
25868;SDS011;13688;53.154;18.136;2023-05-29T18:09:45;7.20;;;2.15;;
25868;SDS011;13688;53.154;18.136;2023-05-29T18:15:09;5.90;;;2.10;;
25868;SDS011;13688;53.154;18.136;2023-05-29T18:20:31;6.40;;;2.17;;
25868;SDS011;13688;53.154;18.136;2023-05-29T18:26:06;6.57;;;2.30;;
25868;SDS011;13688;53.154;18.136;2023-05-29T18:31:29;5.55;;;1.98;;
25868;SDS011;13688;53.154;18.136;2023-05-29T18:36:52;10.97;;;2.60;;
25868;SDS011;13688;53.154;18.136;2023-05-29T18:42:15;6.97;;;2.17;;
25868;SDS011;13688;53.154;18.136;2023-05-29T18:47:38;5.70;;;2.10;;
25868;SDS011;13688;53.154;18.136;2023-05-29T18:53:01;7.13;;;1.90;;
25868;SDS011;13688;53.154;18.136;2023-05-29T18:58:23;8.75;;;2.67;;
25868;SDS011;13688;53.154;18.136;2023-05-29T19:03:45;6.77;;;2.40;;
25868;SDS011;13688;53.154;18.136;2023-05-29T19:09:08;7.07;;;2.23;;
25868;SDS011;13688;53.154;18.136;2023-05-29T19:14:30;6.10;;;2.00;;
25868;SDS011;13688;53.154;18.136;2023-05-29T19:19:53;6.45;;;2.30;;
25868;SDS011;13688;53.154;18.136;2023-05-29T19:25:16;8.55;;;2.37;;
25868;SDS011;13688;53.154;18.136;2023-05-29T19:30:39;11.53;;;2.42;;
25868;SDS011;13688;53.154;18.136;2023-05-29T19:36:01;8.63;;;2.77;;
25868;SDS011;13688;53.154;18.136;2023-05-29T19:41:24;8.60;;;2.30;;
25868;SDS011;13688;53.154;18.136;2023-05-29T19:46:46;8.63;;;2.73;;
25868;SDS011;13688;53.154;18.136;2023-05-29T19:52:09;6.70;;;2.37;;
25868;SDS011;13688;53.154;18.136;2023-05-29T19:57:32;8.18;;;2.85;;
25868;SDS011;13688;53.154;18.136;2023-05-29T20:02:55;10.23;;;2.80;;
25868;SDS011;13688;53.154;18.136;2023-05-29T20:08:17;8.45;;;2.55;;
25868;SDS011;13688;53.154;18.136;2023-05-29T20:13:41;8.20;;;2.20;;
25868;SDS011;13688;53.154;18.136;2023-05-29T20:19:04;9.10;;;2.37;;
25868;SDS011;13688;53.154;18.136;2023-05-29T20:24:29;11.83;;;2.33;;
25868;SDS011;13688;53.154;18.136;2023-05-29T20:29:52;9.83;;;2.55;;
25868;SDS011;13688;53.154;18.136;2023-05-29T20:35:15;12.00;;;4.95;;
25868;SDS011;13688;53.154;18.136;2023-05-29T20:40:45;5.87;;;1.77;;
25868;SDS011;13688;53.154;18.136;2023-05-29T20:46:03;9.50;;;2.40;;
25868;SDS011;13688;53.154;18.136;2023-05-29T20:51:26;9.77;;;2.00;;
25868;SDS011;13688;53.154;18.136;2023-05-29T20:56:50;9.85;;;2.12;;
25868;SDS011;13688;53.154;18.136;2023-05-29T21:02:12;9.18;;;2.30;;
25868;SDS011;13688;53.154;18.136;2023-05-29T21:07:36;9.60;;;2.17;;
25868;SDS011;13688;53.154;18.136;2023-05-29T21:13:00;7.62;;;1.98;;
25868;SDS011;13688;53.154;18.136;2023-05-29T21:18:24;7.03;;;2.02;;
25868;SDS011;13688;53.154;18.136;2023-05-29T21:23:47;10.43;;;2.52;;
25868;SDS011;13688;53.154;18.136;2023-05-29T21:29:11;9.60;;;2.20;;
25868;SDS011;13688;53.154;18.136;2023-05-29T21:34:33;9.25;;;2.10;;
25868;SDS011;13688;53.154;18.136;2023-05-29T21:39:56;11.22;;;2.98;;
25868;SDS011;13688;53.154;18.136;2023-05-29T21:45:18;7.10;;;2.00;;
25868;SDS011;13688;53.154;18.136;2023-05-29T21:50:41;8.05;;;2.25;;
25868;SDS011;13688;53.154;18.136;2023-05-29T21:56:04;8.90;;;2.23;;
25868;SDS011;13688;53.154;18.136;2023-05-29T22:01:28;9.05;;;2.33;;
25868;SDS011;13688;53.154;18.136;2023-05-29T22:06:52;8.43;;;2.40;;
25868;SDS011;13688;53.154;18.136;2023-05-29T22:12:16;7.03;;;2.33;;
25868;SDS011;13688;53.154;18.136;2023-05-29T22:17:55;7.03;;;2.67;;
25868;SDS011;13688;53.154;18.136;2023-05-29T22:23:18;10.50;;;2.20;;
25868;SDS011;13688;53.154;18.136;2023-05-29T22:28:41;11.87;;;2.47;;
25868;SDS011;13688;53.154;18.136;2023-05-29T22:34:04;8.80;;;2.20;;
25868;SDS011;13688;53.154;18.136;2023-05-29T22:39:26;8.47;;;2.13;;
25868;SDS011;13688;53.154;18.136;2023-05-29T22:44:49;5.93;;;1.93;;
25868;SDS011;13688;53.154;18.136;2023-05-29T22:50:12;7.23;;;2.37;;
25868;SDS011;13688;53.154;18.136;2023-05-29T22:55:34;11.03;;;2.60;;
25868;SDS011;13688;53.154;18.136;2023-05-29T23:00:57;9.33;;;2.50;;
25868;SDS011;13688;53.154;18.136;2023-05-29T23:06:19;8.93;;;2.30;;
25868;SDS011;13688;53.154;18.136;2023-05-29T23:11:43;11.00;;;2.67;;
25868;SDS011;13688;53.154;18.136;2023-05-29T23:17:05;10.30;;;2.50;;
25868;SDS011;13688;53.154;18.136;2023-05-29T23:22:28;7.67;;;2.20;;
25868;SDS011;13688;53.154;18.136;2023-05-29T23:27:52;12.00;;;2.10;;
25868;SDS011;13688;53.154;18.136;2023-05-29T23:33:14;10.83;;;2.63;;
25868;SDS011;13688;53.154;18.136;2023-05-29T23:38:37;10.50;;;2.30;;
25868;SDS011;13688;53.154;18.136;2023-05-29T23:44:00;8.57;;;2.43;;
25868;SDS011;13688;53.154;18.136;2023-05-29T23:49:26;7.65;;;2.30;;
25868;SDS011;13688;53.154;18.136;2023-05-29T23:54:48;10.72;;;2.60;;
